Time;durP1;ratioP1;P1;durP2;ratioP2;P2;SDS_P1;SDS_P2;PMS_P1;PMS_P2;Temp;Humidity;BMP_temperature;BMP_pressure;BME280_temperature;BME280_humidity;BME280_pressure;Samples;Min_cycle;Max_cycle;Signal;HPM_P1;HPM_P2
2022/07/16 00:02:20;;;;;;;2.53;1.10;;;18.80;55.10;;;;;;5112047;28;20088;-64
2022/07/16 00:04:46;;;;;;;3.85;1.45;;;18.80;55.30;;;;;;5111250;28;20039;-68
2022/07/16 00:07:12;;;;;;;2.40;1.48;;;18.80;55.50;;;;;;5110687;28;20080;-69
2022/07/16 00:09:38;;;;;;;4.53;1.65;;;18.80;55.50;;;;;;5110821;28;20040;-69
2022/07/16 00:12:04;;;;;;;2.85;1.40;;;18.80;55.50;;;;;;5110940;28;20104;-70
2022/07/16 00:14:30;;;;;;;4.05;1.95;;;18.80;55.50;;;;;;5113876;28;20035;-62
2022/07/16 00:16:55;;;;;;;5.35;2.20;;;18.80;55.50;;;;;;5114470;28;20046;-62
2022/07/16 00:19:23;;;;;;;2.83;1.73;;;18.80;55.70;;;;;;5096898;28;20035;-63
2022/07/16 00:21:52;;;;;;;4.60;1.90;;;18.70;55.80;;;;;;5115965;28;20391;-62
2022/07/16 00:24:18;;;;;;;2.85;1.55;;;18.70;55.90;;;;;;5113979;28;20036;-62
2022/07/16 00:26:45;;;;;;;3.15;1.60;;;18.70;56.00;;;;;;5114336;28;20046;-62
2022/07/16 00:29:11;;;;;;;3.08;1.98;;;18.70;56.00;;;;;;5113865;28;20484;-62
2022/07/16 00:31:37;;;;;;;3.72;1.92;;;18.70;56.10;;;;;;5113923;28;20078;-63
2022/07/16 00:34:07;;;;;;;2.75;1.85;;;18.60;56.20;;;;;;5114168;28;20047;-62
2022/07/16 00:36:34;;;;;;;3.17;1.60;;;18.60;56.20;;;;;;5114348;28;20403;-62
2022/07/16 00:39:00;;;;;;;3.97;1.40;;;18.60;56.70;;;;;;5113630;28;20522;-62
2022/07/16 00:41:25;;;;;;;3.75;1.50;;;18.60;56.40;;;;;;5115206;27;20052;-63
2022/07/16 00:43:56;;;;;;;2.83;1.35;;;18.60;56.50;;;;;;5114031;28;20050;-62
2022/07/16 00:46:21;;;;;;;2.90;1.30;;;18.60;56.30;;;;;;5114348;28;20050;-69
2022/07/16 00:48:47;;;;;;;5.00;1.90;;;18.60;56.30;;;;;;5112758;28;20040;-69
2022/07/16 00:51:15;;;;;;;3.40;1.50;;;18.60;56.40;;;;;;5114227;28;20066;-68
2022/07/16 00:53:42;;;;;;;3.17;1.20;;;18.60;56.40;;;;;;5113684;28;20082;-69
2022/07/16 00:56:09;;;;;;;4.28;1.50;;;18.50;56.20;;;;;;5113953;28;20056;-69
2022/07/16 00:58:37;;;;;;;3.05;1.33;;;18.50;56.40;;;;;;5113880;28;20485;-69
2022/07/16 01:01:03;;;;;;;4.32;1.65;;;18.50;56.70;;;;;;5113932;28;20040;-68
2022/07/16 01:03:30;;;;;;;3.33;1.25;;;18.50;56.80;;;;;;5113652;28;20046;-68
2022/07/16 01:05:56;;;;;;;3.78;1.23;;;18.50;56.90;;;;;;5113735;28;20070;-70
2022/07/16 01:08:22;;;;;;;1.95;0.98;;;18.50;56.90;;;;;;5115058;28;20040;-68
2022/07/16 01:10:48;;;;;;;3.53;1.73;;;18.50;56.80;;;;;;5112860;28;20040;-69
2022/07/16 01:13:15;;;;;;;2.30;1.10;;;18.50;56.90;;;;;;5113116;28;20039;-68
2022/07/16 01:15:41;;;;;;;4.50;1.67;;;18.50;56.90;;;;;;5113111;28;20035;-69
2022/07/16 01:18:06;;;;;;;4.90;1.95;;;18.50;57.30;;;;;;5114704;28;20247;-69
2022/07/16 01:20:32;;;;;;;5.40;2.38;;;18.50;57.50;;;;;;5096347;28;20135;-69
2022/07/16 01:22:59;;;;;;;5.72;1.98;;;18.50;58.40;;;;;;5113281;28;20050;-69
2022/07/16 01:25:24;;;;;;;4.43;1.92;;;18.50;58.60;;;;;;5095449;28;20480;-70
2022/07/16 01:27:50;;;;;;;3.95;2.08;;;18.40;58.50;;;;;;5112815;28;20048;-70
2022/07/16 01:30:16;;;;;;;5.35;1.88;;;18.40;59.00;;;;;;5112750;28;20039;-69
2022/07/16 01:32:41;;;;;;;3.83;2.38;;;18.40;59.20;;;;;;5113064;28;20046;-69
2022/07/16 01:35:07;;;;;;;5.13;2.33;;;18.40;59.70;;;;;;5114690;28;20039;-68
2022/07/16 01:37:33;;;;;;;7.75;2.33;;;18.40;60.20;;;;;;5112809;28;20085;-69
2022/07/16 01:39:59;;;;;;;5.72;2.50;;;18.40;60.70;;;;;;5112692;28;20047;-69
2022/07/16 01:42:25;;;;;;;4.95;1.90;;;18.40;60.90;;;;;;5113006;28;20082;-69
2022/07/16 01:44:51;;;;;;;5.30;2.08;;;18.30;60.60;;;;;;5112368;28;20054;-69
2022/07/16 01:47:16;;;;;;;6.47;2.20;;;18.30;60.50;;;;;;5113539;28;20126;-70
2022/07/16 01:49:42;;;;;;;5.40;2.20;;;18.30;60.40;;;;;;5113748;28;20065;-69
2022/07/16 01:52:11;;;;;;;3.97;1.88;;;18.30;60.70;;;;;;5113204;28;20119;-69
2022/07/16 01:54:42;;;;;;;4.10;1.55;;;18.30;60.70;;;;;;5113611;28;20039;-69
2022/07/16 01:57:07;;;;;;;2.08;1.20;;;18.30;60.80;;;;;;5112915;28;20123;-69
2022/07/16 01:59:33;;;;;;;4.25;1.08;;;18.30;60.80;;;;;;5112314;28;20130;-69
2022/07/16 02:01:59;;;;;;;3.90;1.20;;;18.30;60.90;;;;;;5112842;28;20087;-69
2022/07/16 02:04:24;;;;;;;4.68;1.35;;;18.30;60.70;;;;;;5112113;28;20536;-69
2022/07/16 02:06:50;;;;;;;3.25;1.23;;;18.20;60.80;;;;;;5112925;28;20048;-69
2022/07/16 02:09:16;;;;;;;3.55;1.20;;;18.20;61.00;;;;;;5112118;28;20074;-69
2022/07/16 02:11:41;;;;;;;3.60;1.63;;;18.30;61.20;;;;;;5112593;28;20038;-69
2022/07/16 02:14:07;;;;;;;2.30;1.10;;;18.20;61.20;;;;;;5112149;28;20075;-69
2022/07/16 02:16:33;;;;;;;3.60;1.38;;;18.20;61.40;;;;;;5112243;28;20050;-69
2022/07/16 02:18:58;;;;;;;3.50;1.20;;;18.20;61.50;;;;;;5095115;28;20053;-69
2022/07/16 02:21:24;;;;;;;4.15;1.05;;;18.20;61.40;;;;;;5113523;28;20399;-69
2022/07/16 02:23:50;;;;;;;5.03;1.33;;;18.20;61.60;;;;;;5112538;28;20123;-69
2022/07/16 02:26:15;;;;;;;2.97;1.13;;;18.20;61.70;;;;;;5112423;28;20373;-69
2022/07/16 02:28:41;;;;;;;5.78;1.30;;;18.20;61.70;;;;;;5113386;28;20500;-69
2022/07/16 02:31:07;;;;;;;4.13;1.48;;;18.20;61.60;;;;;;5111725;28;20039;-69
2022/07/16 02:33:32;;;;;;;2.55;1.35;;;18.20;61.70;;;;;;5112990;28;20111;-69
2022/07/16 02:35:58;;;;;;;2.28;1.10;;;18.20;61.70;;;;;;5111569;28;20035;-69
2022/07/16 02:38:23;;;;;;;4.20;1.23;;;18.20;61.70;;;;;;5112288;28;20467;-69
2022/07/16 02:40:49;;;;;;;6.13;1.70;;;18.10;61.70;;;;;;5112978;28;20164;-70
2022/07/16 02:43:15;;;;;;;4.03;1.27;;;18.10;61.90;;;;;;5111942;28;20039;-69
2022/07/16 02:45:42;;;;;;;4.30;1.33;;;18.10;62.00;;;;;;5112890;28;20110;-69
2022/07/16 02:48:10;;;;;;;2.42;1.02;;;18.10;61.80;;;;;;5111619;28;20469;-69
2022/07/16 02:50:36;;;;;;;3.75;1.10;;;18.10;61.80;;;;;;5111412;28;20040;-69
2022/07/16 02:53:02;;;;;;;3.28;1.23;;;18.10;61.90;;;;;;5111504;28;20041;-69
2022/07/16 02:55:28;;;;;;;4.05;1.10;;;18.00;61.90;;;;;;5111160;28;20122;-62
2022/07/16 02:57:54;;;;;;;3.90;1.35;;;18.10;62.10;;;;;;5111439;28;20051;-69
2022/07/16 03:00:20;;;;;;;2.97;1.00;;;18.10;62.30;;;;;;5112578;28;20039;-68
2022/07/16 03:02:46;;;;;;;6.05;1.30;;;18.00;62.30;;;;;;5112698;28;20044;-69
2022/07/16 03:05:12;;;;;;;3.00;1.00;;;18.00;62.30;;;;;;5111012;28;20499;-69
2022/07/16 03:07:37;;;;;;;3.13;1.23;;;18.00;62.50;;;;;;5094627;28;20048;-69
2022/07/16 03:10:05;;;;;;;5.28;1.20;;;18.00;62.40;;;;;;5111021;28;20047;-69
2022/07/16 03:12:31;;;;;;;2.33;1.25;;;17.90;62.30;;;;;;5111706;28;20073;-69
2022/07/16 03:14:57;;;;;;;5.13;1.88;;;17.90;62.40;;;;;;5111523;28;20488;-69
2022/07/16 03:17:23;;;;;;;3.25;1.23;;;17.90;62.30;;;;;;5111367;28;20104;-70
2022/07/16 03:19:49;;;;;;;3.45;1.30;;;17.90;62.30;;;;;;5112706;28;20063;-69
2022/07/16 03:22:16;;;;;;;3.28;1.33;;;17.90;62.20;;;;;;5111190;28;20114;-69
2022/07/16 03:24:41;;;;;;;3.47;1.33;;;17.90;62.20;;;;;;5112534;28;20050;-69
2022/07/16 03:27:07;;;;;;;3.72;1.17;;;17.90;62.20;;;;;;5111241;28;20035;-69
2022/07/16 03:29:33;;;;;;;6.00;1.30;;;17.80;62.10;;;;;;5111218;28;20047;-70
2022/07/16 03:31:59;;;;;;;4.38;1.45;;;17.80;62.00;;;;;;5111819;28;20040;-69
2022/07/16 03:34:25;;;;;;;5.93;1.40;;;17.80;62.00;;;;;;5111449;28;20065;-69
2022/07/16 03:36:51;;;;;;;2.97;1.10;;;17.80;61.90;;;;;;5112331;28;20039;-69
2022/07/16 03:39:16;;;;;;;3.10;1.10;;;17.80;61.80;;;;;;5111566;28;20058;-68
2022/07/16 03:41:42;;;;;;;1.58;1.20;;;17.80;61.70;;;;;;5111245;28;20447;-68
2022/07/16 03:44:09;;;;;;;2.55;1.00;;;17.80;61.60;;;;;;5112037;28;20035;-68
2022/07/16 03:46:36;;;;;;;3.75;1.05;;;17.80;61.60;;;;;;5110451;28;20110;-69
2022/07/16 03:49:02;;;;;;;4.22;1.27;;;17.80;61.40;;;;;;5114018;28;20563;-69
2022/07/16 03:51:28;;;;;;;4.13;1.35;;;17.80;61.40;;;;;;5108908;28;20031;-69
2022/07/16 03:53:54;;;;;;;2.17;1.20;;;17.80;61.40;;;;;;5116051;28;20130;-69
2022/07/16 03:56:20;;;;;;;3.22;1.50;;;17.80;61.30;;;;;;5114947;28;20487;-69
2022/07/16 03:58:46;;;;;;;4.80;1.42;;;17.70;61.20;;;;;;5115084;28;20048;-70
2022/07/16 04:01:12;;;;;;;2.75;1.20;;;17.70;61.10;;;;;;5114798;28;20035;-70
2022/07/16 04:03:38;;;;;;;3.83;1.35;;;17.70;61.10;;;;;;5116069;28;20035;-70
2022/07/16 04:06:04;;;;;;;2.85;1.35;;;17.70;61.10;;;;;;5116169;28;20399;-69
2022/07/16 04:08:30;;;;;;;3.03;1.15;;;17.70;61.10;;;;;;5115085;28;20042;-70
2022/07/16 04:10:56;;;;;;;3.28;1.33;;;17.70;61.00;;;;;;5097673;28;20069;-70
2022/07/16 04:13:22;;;;;;;2.67;0.95;;;17.60;61.00;;;;;;5114355;28;20039;-70
2022/07/16 04:15:48;;;;;;;2.47;1.15;;;17.60;61.00;;;;;;5116460;28;20039;-70
2022/07/16 04:18:13;;;;;;;4.88;1.35;;;17.60;61.00;;;;;;5114611;28;20086;-70
2022/07/16 04:20:39;;;;;;;3.90;1.42;;;17.60;61.00;;;;;;5098080;28;20043;-70
2022/07/16 04:23:05;;;;;;;3.92;1.33;;;17.50;61.00;;;;;;5114505;28;20114;-70
2022/07/16 04:25:33;;;;;;;5.65;1.50;;;17.50;60.90;;;;;;5115958;28;20119;-69
2022/07/16 04:27:59;;;;;;;2.83;1.30;;;17.50;61.10;;;;;;5115799;28;20039;-70
2022/07/16 04:30:24;;;;;;;4.43;1.77;;;17.50;61.00;;;;;;5114618;28;20431;-70
2022/07/16 04:32:50;;;;;;;5.93;1.63;;;17.50;61.10;;;;;;5114252;28;20122;-69
2022/07/16 04:35:17;;;;;;;3.83;1.17;;;17.40;61.00;;;;;;5115579;28;20472;-69
2022/07/16 04:37:43;;;;;;;4.53;1.50;;;17.40;61.00;;;;;;5114431;28;20048;-69
2022/07/16 04:40:11;;;;;;;7.47;1.50;;;17.40;61.10;;;;;;5115203;27;20095;-69
2022/07/16 04:42:41;;;;;;;5.55;1.55;;;17.40;61.20;;;;;;5114029;28;20043;-69
2022/07/16 04:45:09;;;;;;;2.97;1.30;;;17.30;61.10;;;;;;5111950;28;20435;-69
2022/07/16 04:47:35;;;;;;;6.22;1.70;;;17.30;61.10;;;;;;5097077;28;20083;-69
2022/07/16 04:50:01;;;;;;;3.40;1.42;;;17.30;61.10;;;;;;5113947;28;20066;-69
2022/07/16 04:52:27;;;;;;;3.88;1.60;;;17.20;61.00;;;;;;5114053;28;20377;-69
2022/07/16 04:54:53;;;;;;;5.28;1.30;;;17.20;60.90;;;;;;5114045;28;20038;-69
2022/07/16 04:57:19;;;;;;;4.68;1.40;;;17.20;60.90;;;;;;5114181;28;20412;-69
2022/07/16 04:59:44;;;;;;;4.00;1.20;;;17.20;60.90;;;;;;5114015;28;20055;-69
2022/07/16 05:04:54;;;;;;;4.55;1.60;;;17.10;60.90;;;;;;5115309;28;20459;-69
2022/07/16 05:07:20;;;;;;;5.03;1.50;;;17.10;60.80;;;;;;5113612;28;20065;-69
2022/07/16 05:09:45;;;;;;;8.45;1.65;;;17.10;60.70;;;;;;5097159;28;20044;-69
2022/07/16 05:12:11;;;;;;;3.88;1.30;;;17.10;60.80;;;;;;5114716;28;20039;-69
2022/07/16 05:14:37;;;;;;;7.25;1.60;;;17.10;60.80;;;;;;5113804;28;20027;-69
2022/07/16 05:17:03;;;;;;;5.78;1.60;;;17.20;61.00;;;;;;5114858;28;20492;-68
2022/07/16 05:19:28;;;;;;;4.75;1.30;;;17.30;61.00;;;;;;5114088;28;20046;-68
2022/07/16 05:21:54;;;;;;;6.63;1.92;;;17.40;60.60;;;;;;5114895;28;20047;-68
2022/07/16 05:24:20;;;;;;;7.13;1.23;;;17.60;60.30;;;;;;5112860;28;20075;-69
2022/07/16 05:26:45;;;;;;;4.95;1.38;;;17.80;59.80;;;;;;5113199;28;20043;-69
2022/07/16 05:29:11;;;;;;;6.85;2.00;;;18.10;59.20;;;;;;5113684;28;20442;-69
2022/07/16 05:31:37;;;;;;;3.70;0.90;;;18.20;58.40;;;;;;5113413;28;20035;-69
2022/07/16 05:34:02;;;;;;;4.60;1.20;;;18.40;58.00;;;;;;5114925;28;20067;-69
2022/07/16 05:36:28;;;;;;;4.53;1.45;;;18.50;57.60;;;;;;5113389;28;20036;-62
2022/07/16 05:38:54;;;;;;;5.32;1.13;;;18.60;57.30;;;;;;5114217;28;20039;-62
2022/07/16 05:41:19;;;;;;;4.63;1.10;;;18.60;57.10;;;;;;5112930;28;20039;-62
2022/07/16 05:43:45;;;;;;;5.97;1.30;;;18.70;56.90;;;;;;5112762;28;20051;-63
2022/07/16 05:46:11;;;;;;;5.03;1.20;;;18.80;56.60;;;;;;5113994;28;20050;-63
2022/07/16 05:48:36;;;;;;;6.28;1.20;;;18.90;56.20;;;;;;5113152;28;20047;-62
2022/07/16 05:51:02;;;;;;;6.20;1.27;;;19.00;56.00;;;;;;5112914;28;20481;-63
2022/07/16 05:53:28;;;;;;;4.28;1.52;;;19.10;55.70;;;;;;5113821;28;20035;-64
2022/07/16 05:55:54;;;;;;;4.90;1.17;;;19.30;55.50;;;;;;5112605;28;20391;-63
2022/07/16 05:58:19;;;;;;;4.70;1.02;;;19.50;55.10;;;;;;5095766;28;20077;-63
2022/07/16 06:00:45;;;;;;;4.68;1.10;;;19.80;54.70;;;;;;5112863;28;20049;-63
2022/07/16 06:03:10;;;;;;;3.30;1.17;;;20.10;54.00;;;;;;5112939;28;20039;-63
2022/07/16 06:05:36;;;;;;;2.97;1.10;;;20.40;53.60;;;;;;5112898;28;20048;-63
2022/07/16 06:08:02;;;;;;;5.65;1.40;;;20.70;52.80;;;;;;5112507;28;20468;-63
2022/07/16 06:10:28;;;;;;;5.45;1.67;;;21.10;52.30;;;;;;5112432;28;20404;-62
2022/07/16 06:12:54;;;;;;;4.10;1.23;;;21.40;51.40;;;;;;5113386;28;20036;-62
2022/07/16 06:15:20;;;;;;;4.75;1.10;;;21.80;50.70;;;;;;5112470;28;20038;-62
2022/07/16 06:17:45;;;;;;;5.30;1.50;;;22.20;50.00;;;;;;5112022;28;20047;-64
2022/07/16 06:20:11;;;;;;;3.75;1.20;;;22.60;49.30;;;;;;5112638;28;20054;-64
2022/07/16 06:22:37;;;;;;;3.35;0.90;;;22.80;48.40;;;;;;5111949;28;20075;-62
2022/07/16 06:25:04;;;;;;;3.67;1.10;;;23.10;47.50;;;;;;5112299;28;20071;-62
2022/07/16 06:27:29;;;;;;;6.75;1.70;;;23.30;47.10;;;;;;5112138;28;20039;-62
2022/07/16 06:29:55;;;;;;;3.70;1.30;;;23.50;46.30;;;;;;5113576;28;20058;-62
2022/07/16 06:32:21;;;;;;;6.60;1.40;;;23.70;45.20;;;;;;5111588;28;20046;-62
2022/07/16 06:34:46;;;;;;;6.88;2.00;;;23.80;45.00;;;;;;5112098;28;20039;-62
2022/07/16 06:37:12;;;;;;;4.65;1.23;;;24.00;44.90;;;;;;5111846;28;20040;-62
2022/07/16 06:39:40;;;;;;;5.60;1.70;;;24.20;44.50;;;;;;5095592;28;20048;-63
2022/07/16 06:42:06;;;;;;;5.55;1.65;;;24.30;43.90;;;;;;5111837;28;20442;-63
2022/07/16 06:44:32;;;;;;;4.03;1.00;;;24.30;43.30;;;;;;5111825;28;20114;-63
2022/07/16 06:46:57;;;;;;;5.18;1.50;;;24.30;43.10;;;;;;5094390;28;20040;-63
2022/07/16 06:49:23;;;;;;;5.65;1.30;;;24.30;42.50;;;;;;5112864;28;20040;-63
2022/07/16 06:51:49;;;;;;;3.83;1.40;;;24.20;42.50;;;;;;5112862;28;20510;-64
2022/07/16 06:54:15;;;;;;;5.35;1.15;;;24.10;42.30;;;;;;5111400;28;20385;-63
2022/07/16 06:56:41;;;;;;;5.72;1.33;;;24.00;42.50;;;;;;5094880;28;20066;-63
2022/07/16 06:59:06;;;;;;;6.20;1.35;;;23.80;42.40;;;;;;5112716;28;20119;-63
2022/07/16 07:01:33;;;;;;;4.57;1.02;;;23.60;42.50;;;;;;5094605;28;20051;-64
2022/07/16 07:03:59;;;;;;;5.35;1.00;;;23.50;42.90;;;;;;5112860;28;20446;-64
2022/07/16 07:06:24;;;;;;;6.10;1.05;;;23.50;43.30;;;;;;5094056;28;20058;-62
2022/07/16 07:08:50;;;;;;;2.92;0.88;;;23.50;43.70;;;;;;5111339;28;20043;-62
2022/07/16 07:11:16;;;;;;;4.05;0.95;;;23.60;43.60;;;;;;5112931;28;20508;-62
2022/07/16 07:13:41;;;;;;;3.72;0.98;;;23.60;43.30;;;;;;5110992;28;20400;-64
2022/07/16 07:16:07;;;;;;;6.68;1.23;;;23.60;42.90;;;;;;5112501;28;20071;-63
2022/07/16 07:18:33;;;;;;;5.72;1.00;;;23.70;42.70;;;;;;5111074;28;20067;-63
2022/07/16 07:21:00;;;;;;;6.15;0.98;;;23.70;42.60;;;;;;5111014;28;20131;-63
2022/07/16 07:23:26;;;;;;;3.78;1.33;;;23.80;43.00;;;;;;5106499;28;20036;-63
2022/07/16 07:25:52;;;;;;;4.53;1.33;;;23.90;43.00;;;;;;5108161;28;20358;-62
2022/07/16 07:28:17;;;;;;;3.60;1.17;;;24.00;42.50;;;;;;5089992;28;20044;-64
2022/07/16 07:30:44;;;;;;;3.85;1.05;;;24.00;42.30;;;;;;5111511;28;20036;-63
2022/07/16 07:33:10;;;;;;;3.78;1.15;;;24.10;42.50;;;;;;5112261;28;20036;-64
2022/07/16 07:35:35;;;;;;;4.95;1.15;;;24.10;42.30;;;;;;5111969;28;20108;-63
2022/07/16 07:38:01;;;;;;;4.30;0.98;;;24.10;41.70;;;;;;5111828;28;20442;-63
2022/07/16 07:40:28;;;;;;;5.32;1.10;;;24.10;41.30;;;;;;5097571;28;20051;-62
2022/07/16 07:42:59;;;;;;;4.60;0.98;;;24.00;41.40;;;;;;5112371;28;20035;-63
2022/07/16 07:45:25;;;;;;;5.75;1.48;;;23.80;41.70;;;;;;5112707;28;20075;-63
2022/07/16 07:47:51;;;;;;;3.45;0.75;;;23.70;41.80;;;;;;5111481;28;20044;-63
2022/07/16 07:50:16;;;;;;;4.70;1.00;;;23.70;42.00;;;;;;5111728;28;20054;-62
2022/07/16 07:52:42;;;;;;;4.20;0.85;;;23.60;41.50;;;;;;5111810;28;20071;-63
2022/07/16 07:55:08;;;;;;;4.22;1.30;;;23.50;41.10;;;;;;5111168;28;20051;-62
2022/07/16 07:57:33;;;;;;;2.33;0.85;;;23.40;41.40;;;;;;5111267;28;20059;-62
2022/07/16 07:59:59;;;;;;;4.20;0.73;;;23.30;41.20;;;;;;5110847;28;20054;-63
2022/07/16 08:02:25;;;;;;;7.32;1.15;;;23.30;41.80;;;;;;5110848;28;20117;-62
2022/07/16 08:04:51;;;;;;;3.72;0.98;;;23.30;41.00;;;;;;5110909;28;20476;-63
2022/07/16 08:07:17;;;;;;;3.13;0.93;;;23.40;40.90;;;;;;5095031;28;20050;-62
2022/07/16 08:09:44;;;;;;;2.78;1.02;;;23.50;41.10;;;;;;5109656;28;20032;-62
2022/07/16 08:12:09;;;;;;;4.97;1.00;;;23.70;41.40;;;;;;5109819;28;20031;-62
2022/07/16 08:14:36;;;;;;;3.22;0.75;;;23.80;40.90;;;;;;5110344;28;20065;-62
2022/07/16 08:17:02;;;;;;;6.53;1.20;;;23.90;40.30;;;;;;5111260;28;20040;-62
2022/07/16 08:19:27;;;;;;;3.53;0.80;;;24.00;39.90;;;;;;5109629;28;20531;-63
2022/07/16 08:21:54;;;;;;;2.58;0.63;;;24.00;38.80;;;;;;5110221;28;20040;-63
2022/07/16 08:27:07;;;;;;;3.15;0.95;;;24.30;38.40;;;;;;5111653;28;20134;-63
2022/07/16 08:29:32;;;;;;;4.32;1.17;;;24.30;37.80;;;;;;5112396;28;20100;-63
2022/07/16 08:31:58;;;;;;;4.25;1.00;;;24.40;38.50;;;;;;5110720;28;20480;-63
2022/07/16 08:34:24;;;;;;;4.47;0.65;;;24.50;38.80;;;;;;5113073;28;20044;-63
2022/07/16 08:36:52;;;;;;;2.80;1.02;;;24.60;38.50;;;;;;5094377;28;20051;-63
2022/07/16 08:39:18;;;;;;;2.75;0.70;;;24.60;38.40;;;;;;5091325;28;20051;-62
2022/07/16 08:41:44;;;;;;;1.65;0.65;;;24.70;37.90;;;;;;5089022;27;20044;-62
2022/07/16 08:44:15;;;;;;;4.18;0.75;;;24.60;37.10;;;;;;5022474;28;20067;-63
2022/07/16 08:46:41;;;;;;;4.15;0.82;;;24.60;37.60;;;;;;5050864;28;20421;-63
2022/07/16 08:49:07;;;;;;;2.20;0.60;;;24.60;37.60;;;;;;5051016;28;20090;-63
2022/07/16 08:51:35;;;;;;;3.75;0.68;;;24.50;37.30;;;;;;5052785;28;20040;-63
2022/07/16 08:54:08;;;;;;;2.05;0.60;;;24.50;37.20;;;;;;5051062;28;20044;-63
2022/07/16 08:56:34;;;;;;;1.75;0.50;;;24.40;37.00;;;;;;5053180;28;20114;-63
2022/07/16 08:59:01;;;;;;;3.47;0.73;;;24.40;37.30;;;;;;5048931;28;20485;-62
2022/07/16 09:01:29;;;;;;;3.38;0.70;;;24.40;36.80;;;;;;5050002;28;20041;-63
2022/07/16 09:03:59;;;;;;;2.40;0.60;;;24.40;36.50;;;;;;5053535;28;20075;-63
2022/07/16 09:06:25;;;;;;;3.92;0.70;;;24.40;36.70;;;;;;5063888;28;20041;-63
2022/07/16 09:08:52;;;;;;;3.30;0.82;;;24.40;37.20;;;;;;5051014;28;20049;-63
2022/07/16 09:11:20;;;;;;;5.07;0.90;;;24.50;37.20;;;;;;5048969;28;20382;-63
2022/07/16 09:14:16;;;;;;;3.05;1.00;;;24.50;36.50;;;;;;5049431;28;20055;-64
2022/07/16 09:16:51;;;;;;;5.10;1.02;;;24.50;37.00;;;;;;5031250;28;20094;-63
2022/07/16 09:19:27;;;;;;;3.03;1.00;;;24.30;37.00;;;;;;5049728;28;20044;-64
2022/07/16 09:22:09;;;;;;;2.97;0.80;;;24.30;37.10;;;;;;5049942;28;20451;-64
2022/07/16 09:24:45;;;;;;;3.05;0.90;;;24.20;37.20;;;;;;5048601;28;20180;-65
2022/07/16 09:27:14;;;;;;;3.75;1.20;;;24.10;37.60;;;;;;5048904;28;20049;-65
2022/07/16 09:29:51;;;;;;;2.75;0.90;;;24.00;37.40;;;;;;5048518;28;20460;-64
2022/07/16 09:32:36;;;;;;;3.42;0.75;;;24.00;37.80;;;;;;5048420;28;20135;-65
2022/07/16 09:35:10;;;;;;;3.42;0.75;;;24.10;38.00;;;;;;5051643;28;20098;-66
2022/07/16 09:37:46;;;;;;;;;;;24.10;37.70;;;;;;5047006;28;20095;-65
2022/07/16 09:40:13;;;;;;;4.55;1.05;;;24.00;37.90;;;;;;5047830;28;19923;-69
2022/07/16 09:42:39;;;;;;;4.90;1.35;;;23.90;38.00;;;;;;5031027;28;20179;-68
2022/07/16 09:45:19;;;;;;;3.67;1.10;;;23.90;38.30;;;;;;5030950;28;20110;-68
2022/07/16 09:47:45;;;;;;;4.00;0.80;;;23.90;38.10;;;;;;5048675;28;20091;-69
2022/07/16 09:50:11;;;;;;;5.55;1.27;;;24.00;37.90;;;;;;5047438;28;20052;-69
2022/07/16 09:52:37;;;;;;;3.78;0.77;;;24.00;37.40;;;;;;5047384;28;20040;-69
2022/07/16 09:55:03;;;;;;;3.72;1.00;;;24.00;37.40;;;;;;5064525;28;20044;-68
2022/07/16 09:57:30;;;;;;;2.35;0.80;;;23.90;37.00;;;;;;5050981;28;20137;-68
2022/07/16 09:59:57;;;;;;;3.25;0.80;;;23.80;36.80;;;;;;5048339;28;20488;-67
2022/07/16 10:02:23;;;;;;;1.60;0.50;;;23.60;37.00;;;;;;5049584;28;20040;-68
2022/07/16 10:04:50;;;;;;;5.05;0.95;;;23.50;36.70;;;;;;5047172;28;20037;-68
2022/07/16 10:07:17;;;;;;;5.30;0.95;;;23.40;37.30;;;;;;5031428;28;20091;-71
2022/07/16 10:09:43;;;;;;;3.40;0.90;;;23.30;38.10;;;;;;5046937;28;20041;-70
2022/07/16 10:12:15;;;;;;;3.58;0.80;;;23.30;38.50;;;;;;5051653;28;20075;-68
2022/07/16 10:14:47;;;;;;;4.15;0.80;;;23.30;38.50;;;;;;5049721;28;20094;-68
2022/07/16 10:17:22;;;;;;;5.63;1.15;;;23.40;39.10;;;;;;5049604;28;20044;-68
2022/07/16 10:20:05;;;;;;;4.45;0.80;;;23.40;39.30;;;;;;5051064;28;20044;-69
2022/07/16 10:22:34;;;;;;;3.38;0.80;;;23.40;38.40;;;;;;5049942;28;20075;-68
2022/07/16 10:25:00;;;;;;;3.58;1.23;;;23.40;39.20;;;;;;5050805;28;20033;-68
2022/07/16 10:27:34;;;;;;;4.20;1.00;;;23.50;38.80;;;;;;5049363;28;20080;-69
2022/07/16 10:30:15;;;;;;;2.20;0.95;;;23.60;38.80;;;;;;5050531;28;20040;-69
2022/07/16 10:32:59;;;;;;;2.35;0.52;;;23.50;37.90;;;;;;5050452;28;20119;-69
2022/07/16 10:35:45;;;;;;;4.30;1.05;;;23.50;37.90;;;;;;5050535;28;20524;-68
2022/07/16 10:38:23;;;;;;;4.90;1.10;;;23.50;38.00;;;;;;5049028;28;20123;-69
2022/07/16 10:41:15;;;;;;;3.90;1.00;;;23.60;38.60;;;;;;5042208;28;20501;-69
2022/07/16 10:43:41;;;;;;;4.53;0.95;;;23.60;38.40;;;;;;5061548;28;20468;-68
2022/07/16 10:46:09;;;;;;;6.55;1.30;;;23.50;38.40;;;;;;5049986;28;20132;-68
2022/07/16 10:48:38;;;;;;;5.63;0.82;;;23.60;38.00;;;;;;5033741;28;20491;-68
2022/07/16 10:51:17;;;;;;;2.58;0.85;;;23.70;38.00;;;;;;5050988;28;20041;-68
2022/07/16 10:54:01;;;;;;;6.45;0.90;;;23.70;38.00;;;;;;5049540;28;20129;-68
2022/07/16 10:56:50;;;;;;;4.50;1.08;;;23.70;38.20;;;;;;5036812;28;20057;-68
2022/07/16 10:59:19;;;;;;;4.15;1.02;;;23.80;39.00;;;;;;5050815;28;20466;-68
2022/07/16 11:01:46;;;;;;;4.68;1.33;;;23.80;38.20;;;;;;5042394;28;20079;-68
2022/07/16 11:04:13;;;;;;;3.13;1.00;;;23.80;38.20;;;;;;5048095;28;20041;-68
2022/07/16 11:06:40;;;;;;;3.58;0.90;;;23.80;38.50;;;;;;5046484;28;20413;-68
2022/07/16 11:09:08;;;;;;;4.70;1.25;;;23.80;39.00;;;;;;5024996;28;20045;-68
2022/07/16 11:11:36;;;;;;;4.30;1.00;;;23.80;39.20;;;;;;5041796;28;20072;-68
2022/07/16 11:14:02;;;;;;;4.10;1.15;;;23.70;39.00;;;;;;5024686;28;20120;-68
2022/07/16 11:16:29;;;;;;;3.25;1.20;;;23.70;38.70;;;;;;5047886;28;20045;-68
2022/07/16 11:18:58;;;;;;;3.65;0.80;;;23.70;38.40;;;;;;5042786;28;20044;-68
2022/07/16 11:21:23;;;;;;;3.78;0.93;;;23.70;38.10;;;;;;5041702;28;20053;-67
2022/07/16 11:23:58;;;;;;;5.05;1.05;;;23.70;38.40;;;;;;5033511;28;20051;-68
2022/07/16 11:26:24;;;;;;;3.40;1.02;;;23.70;38.40;;;;;;5059377;28;20040;-68
2022/07/16 11:29:00;;;;;;;5.80;1.77;;;23.60;38.90;;;;;;5043022;28;20041;-68
2022/07/16 11:31:29;;;;;;;4.38;1.27;;;23.70;39.20;;;;;;5041778;28;20808;-67
2022/07/16 11:33:58;;;;;;;2.35;0.73;;;23.70;38.80;;;;;;5041350;28;20044;-68
2022/07/16 11:36:28;;;;;;;4.60;1.13;;;23.70;38.60;;;;;;5042273;28;20041;-68
2022/07/16 11:39:15;;;;;;;3.10;1.20;;;23.80;38.80;;;;;;5042290;28;20075;-68
2022/07/16 11:41:43;;;;;;;4.60;1.15;;;23.80;39.20;;;;;;5043097;28;20450;-69
2022/07/16 11:44:22;;;;;;;4.28;1.13;;;23.80;39.30;;;;;;5043195;28;20566;-69
2022/07/16 11:46:53;;;;;;;3.95;1.05;;;23.70;39.00;;;;;;5042998;28;20080;-69
2022/07/16 11:49:35;;;;;;;2.47;1.00;;;23.80;39.20;;;;;;5042582;28;20409;-67
2022/07/16 11:52:06;;;;;;;5.68;1.13;;;23.80;39.20;;;;;;5042645;28;20041;-68
2022/07/16 11:54:42;;;;;;;3.08;1.10;;;23.90;39.30;;;;;;5042356;28;20041;-68
2022/07/16 11:57:11;;;;;;;4.82;0.93;;;23.90;39.10;;;;;;5042515;28;20502;-67
2022/07/16 11:59:47;;;;;;;3.45;0.85;;;23.80;38.90;;;;;;5042082;28;20053;-68
2022/07/16 12:02:16;;;;;;;4.78;0.80;;;23.70;39.10;;;;;;5051208;28;20049;-68
2022/07/16 12:04:52;;;;;;;4.80;1.08;;;23.70;39.00;;;;;;5047936;28;20650;-68
2022/07/16 12:07:32;;;;;;;3.35;0.90;;;23.70;38.70;;;;;;5042380;28;20044;-68
2022/07/16 12:10:01;;;;;;;6.47;1.15;;;23.80;38.50;;;;;;5045247;28;20127;-68
2022/07/16 12:12:32;;;;;;;3.85;0.90;;;23.80;38.50;;;;;;5059691;28;20041;-68
2022/07/16 12:15:00;;;;;;;3.85;1.00;;;23.80;38.00;;;;;;5046380;28;20811;-68
2022/07/16 12:17:31;;;;;;;4.53;1.40;;;23.90;38.00;;;;;;5053957;28;20032;-67
2022/07/16 12:20:09;;;;;;;3.05;0.95;;;23.90;37.60;;;;;;5045807;28;20060;-68
2022/07/16 12:22:48;;;;;;;3.35;1.17;;;23.80;37.90;;;;;;5046327;28;20033;-68
2022/07/16 12:25:36;;;;;;;4.78;1.23;;;23.80;38.50;;;;;;5046145;28;20044;-68
2022/07/16 12:28:08;;;;;;;5.57;0.85;;;23.80;37.90;;;;;;5045046;28;20181;-68
2022/07/16 12:30:38;;;;;;;3.60;1.10;;;23.80;37.90;;;;;;5043765;28;20045;-68
2022/07/16 12:33:07;;;;;;;3.15;1.10;;;23.80;37.90;;;;;;5051426;28;20067;-68
2022/07/16 12:35:51;;;;;;;2.95;0.82;;;23.80;38.00;;;;;;5045533;28;20037;-68
2022/07/16 12:38:38;;;;;;;4.82;0.90;;;23.80;37.50;;;;;;5061264;28;20048;-68
2022/07/16 12:41:11;;;;;;;3.38;0.90;;;23.80;37.40;;;;;;5043997;28;20508;-67
2022/07/16 12:43:38;;;;;;;3.05;0.95;;;23.80;37.90;;;;;;5045179;28;20394;-68
2022/07/16 12:46:06;;;;;;;4.88;1.25;;;23.90;37.90;;;;;;5043383;28;20098;-68
2022/07/16 12:48:47;;;;;;;3.60;0.90;;;24.00;37.80;;;;;;5044336;28;20045;-68
2022/07/16 12:51:17;;;;;;;4.13;1.50;;;24.00;37.00;;;;;;5044225;28;20080;-67
2022/07/16 12:53:43;;;;;;;5.88;0.90;;;24.00;36.80;;;;;;5028045;28;20124;-68
2022/07/16 12:58:53;;;;;;;6.32;1.52;;;24.10;36.80;;;;;;5043992;28;20851;-68
2022/07/16 13:01:20;;;;;;;4.10;1.15;;;24.20;36.80;;;;;;5045620;28;20132;-68